sensor_id;sensor_type;location;lat;lon;timestamp;pressure;altitude;pressure_sealevel;temperature;humidity
36386;BME280;24125;47.482;8.770;2023-02-24T00:00:42;95782.75;;;7.18;66.79
36386;BME280;24125;47.482;8.770;2023-02-24T00:03:22;95777.78;;;7.17;66.70
36386;BME280;24125;47.482;8.770;2023-02-24T00:05:55;95783.41;;;7.15;67.01
36386;BME280;24125;47.482;8.770;2023-02-24T00:08:31;95772.31;;;7.13;67.09
36386;BME280;24125;47.482;8.770;2023-02-24T00:11:09;95777.16;;;7.11;67.37
36386;BME280;24125;47.482;8.770;2023-02-24T00:13:44;95777.00;;;7.08;67.62
36386;BME280;24125;47.482;8.770;2023-02-24T00:16:18;95772.00;;;7.06;67.17
36386;BME280;24125;47.482;8.770;2023-02-24T00:18:51;95775.75;;;7.05;67.44
36386;BME280;24125;47.482;8.770;2023-02-24T00:21:24;95765.44;;;7.04;67.33
36386;BME280;24125;47.482;8.770;2023-02-24T00:23:59;95763.09;;;7.02;67.53
36386;BME280;24125;47.482;8.770;2023-02-24T00:26:32;95758.44;;;6.99;66.82
36386;BME280;24125;47.482;8.770;2023-02-24T00:29:08;95754.22;;;6.98;67.55
36386;BME280;24125;47.482;8.770;2023-02-24T00:31:41;95758.25;;;6.96;67.60
36386;BME280;24125;47.482;8.770;2023-02-24T00:34:15;95755.91;;;6.94;66.79
36386;BME280;24125;47.482;8.770;2023-02-24T00:36:47;95758.09;;;6.92;67.58
36386;BME280;24125;47.482;8.770;2023-02-24T00:39:22;95759.19;;;6.91;66.78
36386;BME280;24125;47.482;8.770;2023-02-24T00:42:02;95748.09;;;6.89;66.96
36386;BME280;24125;47.482;8.770;2023-02-24T00:44:38;95741.53;;;6.87;66.74
36386;BME280;24125;47.482;8.770;2023-02-24T00:47:13;95742.16;;;6.83;67.05
36386;BME280;24125;47.482;8.770;2023-02-24T00:49:46;95741.41;;;6.83;67.27
36386;BME280;24125;47.482;8.770;2023-02-24T00:52:20;95742.78;;;6.80;66.81
36386;BME280;24125;47.482;8.770;2023-02-24T00:54:55;95751.84;;;6.79;66.87
36386;BME280;24125;47.482;8.770;2023-02-24T00:57:29;95740.75;;;6.77;66.78
36386;BME280;24125;47.482;8.770;2023-02-24T01:00:04;95745.59;;;6.75;67.41
36386;BME280;24125;47.482;8.770;2023-02-24T01:02:42;95743.28;;;6.74;66.77
36386;BME280;24125;47.482;8.770;2023-02-24T01:05:17;95739.34;;;6.71;67.27
36386;BME280;24125;47.482;8.770;2023-02-24T01:07:52;95744.50;;;6.68;67.38
36386;BME280;24125;47.482;8.770;2023-02-24T01:10:26;95739.19;;;6.68;67.45
36386;BME280;24125;47.482;8.770;2023-02-24T01:12:59;95745.13;;;6.65;66.97
36386;BME280;24125;47.482;8.770;2023-02-24T01:15:31;95737.47;;;6.63;67.26
36386;BME280;24125;47.482;8.770;2023-02-24T01:18:04;95733.56;;;6.61;67.46
36386;BME280;24125;47.482;8.770;2023-02-24T01:20:37;95724.34;;;6.58;67.05
36386;BME280;24125;47.482;8.770;2023-02-24T01:23:10;95727.31;;;6.57;67.11
36386;BME280;24125;47.482;8.770;2023-02-24T01:25:46;95725.75;;;6.56;67.59
36386;BME280;24125;47.482;8.770;2023-02-24T01:28:19;95730.59;;;6.54;67.67
36386;BME280;24125;47.482;8.770;2023-02-24T01:30:53;95717.94;;;6.51;67.15
36386;BME280;24125;47.482;8.770;2023-02-24T01:33:26;95726.97;;;6.50;67.61
36386;BME280;24125;47.482;8.770;2023-02-24T01:36:07;95721.69;;;6.50;67.56
36386;BME280;24125;47.482;8.770;2023-02-24T01:38:40;95722.31;;;6.47;66.87
36386;BME280;24125;47.482;8.770;2023-02-24T01:41:17;95722.13;;;6.43;67.09
36386;BME280;24125;47.482;8.770;2023-02-24T01:43:55;95724.00;;;6.42;67.05
36386;BME280;24125;47.482;8.770;2023-02-24T01:46:31;95715.91;;;6.39;67.10
36386;BME280;24125;47.482;8.770;2023-02-24T01:49:08;95710.91;;;6.37;67.23
36386;BME280;24125;47.482;8.770;2023-02-24T01:51:46;95710.44;;;6.35;67.29
36386;BME280;24125;47.482;8.770;2023-02-24T01:54:22;95712.59;;;6.33;67.27
36386;BME280;24125;47.482;8.770;2023-02-24T01:56:58;95710.25;;;6.32;67.63
36386;BME280;24125;47.482;8.770;2023-02-24T01:59:32;95711.69;;;6.29;67.32
36386;BME280;24125;47.482;8.770;2023-02-24T02:02:07;95706.38;;;6.29;67.54
36386;BME280;24125;47.482;8.770;2023-02-24T02:04:43;95700.28;;;6.29;67.72
36386;BME280;24125;47.482;8.770;2023-02-24T02:07:20;95704.31;;;6.26;67.78
36386;BME280;24125;47.482;8.770;2023-02-24T02:09:53;95701.50;;;6.23;67.82
36386;BME280;24125;47.482;8.770;2023-02-24T02:12:31;95701.50;;;6.23;67.45
36386;BME280;24125;47.482;8.770;2023-02-24T02:15:07;95702.91;;;6.20;68.08
36386;BME280;24125;47.482;8.770;2023-02-24T02:17:50;95704.47;;;6.21;68.14
36386;BME280;24125;47.482;8.770;2023-02-24T02:23:52;95692.63;;;6.19;67.79
36386;BME280;24125;47.482;8.770;2023-02-24T02:26:33;95699.78;;;6.18;67.67
36386;BME280;24125;47.482;8.770;2023-02-24T02:32:47;95701.06;;;6.21;68.05
36386;BME280;24125;47.482;8.770;2023-02-24T02:35:29;95696.06;;;6.19;67.82
36386;BME280;24125;47.482;8.770;2023-02-24T02:38:12;95698.22;;;6.17;67.59
36386;BME280;24125;47.482;8.770;2023-02-24T02:40:58;95699.78;;;6.18;68.20
36386;BME280;24125;47.482;8.770;2023-02-24T02:43:37;95708.81;;;6.17;67.86
36386;BME280;24125;47.482;8.770;2023-02-24T02:46:14;95693.69;;;6.18;68.15
36386;BME280;24125;47.482;8.770;2023-02-24T02:48:53;95703.22;;;6.19;68.59
36386;BME280;24125;47.482;8.770;2023-02-24T02:51:32;95693.88;;;6.21;69.24
36386;BME280;24125;47.482;8.770;2023-02-24T02:54:14;95697.47;;;6.25;69.37
36386;BME280;24125;47.482;8.770;2023-02-24T02:56:55;95693.56;;;6.31;69.51
36386;BME280;24125;47.482;8.770;2023-02-24T02:59:35;95696.56;;;6.38;69.41
36386;BME280;24125;47.482;8.770;2023-02-24T03:02:09;95697.97;;;6.44;69.24
36386;BME280;24125;47.482;8.770;2023-02-24T03:04:50;95693.78;;;6.52;69.34
36386;BME280;24125;47.482;8.770;2023-02-24T03:07:28;95690.66;;;6.59;69.38
36386;BME280;24125;47.482;8.770;2023-02-24T03:10:06;95696.75;;;6.68;69.47
36386;BME280;24125;47.482;8.770;2023-02-24T03:12:45;95687.88;;;6.72;69.18
36386;BME280;24125;47.482;8.770;2023-02-24T03:15:21;95693.00;;;6.77;69.11
36386;BME280;24125;47.482;8.770;2023-02-24T03:17:59;95688.78;;;6.85;69.08
36386;BME280;24125;47.482;8.770;2023-02-24T03:20:35;95683.66;;;6.89;68.68
36386;BME280;24125;47.482;8.770;2023-02-24T03:23:12;95678.63;;;6.96;69.27
36386;BME280;24125;47.482;8.770;2023-02-24T03:25:53;95685.03;;;7.03;69.41
36386;BME280;24125;47.482;8.770;2023-02-24T03:28:32;95683.00;;;7.09;69.42
36386;BME280;24125;47.482;8.770;2023-02-24T03:31:09;95677.53;;;7.14;69.21
36386;BME280;24125;47.482;8.770;2023-02-24T03:33:54;95672.50;;;7.21;69.60
36386;BME280;24125;47.482;8.770;2023-02-24T03:36:31;95678.91;;;7.29;69.35
36386;BME280;24125;47.482;8.770;2023-02-24T03:39:06;95675.44;;;7.37;68.90
36386;BME280;24125;47.482;8.770;2023-02-24T03:41:48;95660.13;;;7.42;69.45
36386;BME280;24125;47.482;8.770;2023-02-24T03:44:24;95667.94;;;7.47;68.77
36386;BME280;24125;47.482;8.770;2023-02-24T03:46:57;95661.34;;;7.53;68.47
36386;BME280;24125;47.482;8.770;2023-02-24T03:49:32;95656.19;;;7.57;68.10
36386;BME280;24125;47.482;8.770;2023-02-24T03:52:15;95656.00;;;7.62;68.01
36386;BME280;24125;47.482;8.770;2023-02-24T03:55:09;95656.16;;;7.66;68.64
36386;BME280;24125;47.482;8.770;2023-02-24T03:57:53;95653.19;;;7.67;68.40
36386;BME280;24125;47.482;8.770;2023-02-24T04:00:37;95650.22;;;7.69;68.10
36386;BME280;24125;47.482;8.770;2023-02-24T04:03:19;95646.00;;;7.68;67.99
36386;BME280;24125;47.482;8.770;2023-02-24T04:06:06;95651.00;;;7.69;68.39
36386;BME280;24125;47.482;8.770;2023-02-24T04:08:44;95649.75;;;7.67;67.72
36386;BME280;24125;47.482;8.770;2023-02-24T04:11:24;95651.63;;;7.66;67.77
36386;BME280;24125;47.482;8.770;2023-02-24T04:14:01;95650.84;;;7.66;68.18
36386;BME280;24125;47.482;8.770;2023-02-24T04:16:42;95657.41;;;7.68;67.79
36386;BME280;24125;47.482;8.770;2023-02-24T04:19:19;95659.59;;;7.66;67.76
36386;BME280;24125;47.482;8.770;2023-02-24T04:21:54;95660.69;;;7.65;68.54
36386;BME280;24125;47.482;8.770;2023-02-24T04:24:29;95664.91;;;7.66;67.98
36386;BME280;24125;47.482;8.770;2023-02-24T04:27:09;95672.25;;;7.69;68.53
36386;BME280;24125;47.482;8.770;2023-02-24T04:29:46;95672.25;;;7.69;68.12
36386;BME280;24125;47.482;8.770;2023-02-24T04:32:23;95662.38;;;7.70;68.17
36386;BME280;24125;47.482;8.770;2023-02-24T04:35:03;95657.84;;;7.70;68.16
36386;BME280;24125;47.482;8.770;2023-02-24T04:37:37;95665.38;;;7.68;67.68
36386;BME280;24125;47.482;8.770;2023-02-24T04:40:16;95654.28;;;7.66;67.72
36386;BME280;24125;47.482;8.770;2023-02-24T04:42:54;95657.25;;;7.65;67.54
36386;BME280;24125;47.482;8.770;2023-02-24T04:45:28;95650.38;;;7.64;67.39
36386;BME280;24125;47.482;8.770;2023-02-24T04:48:02;95655.56;;;7.60;67.23
36386;BME280;24125;47.482;8.770;2023-02-24T04:50:36;95652.75;;;7.56;67.44
36386;BME280;24125;47.482;8.770;2023-02-24T04:53:11;95648.06;;;7.53;67.49
36386;BME280;24125;47.482;8.770;2023-02-24T04:55:47;95645.75;;;7.52;67.18
36386;BME280;24125;47.482;8.770;2023-02-24T04:58:24;95636.53;;;7.49;67.53
36386;BME280;24125;47.482;8.770;2023-02-24T05:00:58;95642.00;;;7.44;67.04
36386;BME280;24125;47.482;8.770;2023-02-24T05:03:31;95638.44;;;7.40;66.94
36386;BME280;24125;47.482;8.770;2023-02-24T05:06:10;95639.81;;;7.38;66.93
36386;BME280;24125;47.482;8.770;2023-02-24T05:08:45;95634.22;;;7.31;66.83
36386;BME280;24125;47.482;8.770;2023-02-24T05:11:18;95634.53;;;7.29;67.00
36386;BME280;24125;47.482;8.770;2023-02-24T05:13:53;95629.88;;;7.26;67.47
36386;BME280;24125;47.482;8.770;2023-02-24T05:16:26;95627.06;;;7.23;68.12
36386;BME280;24125;47.482;8.770;2023-02-24T05:18:59;95630.50;;;7.23;67.70
36386;BME280;24125;47.482;8.770;2023-02-24T05:21:50;95632.84;;;7.25;68.21
36386;BME280;24125;47.482;8.770;2023-02-24T05:24:23;95629.09;;;7.26;67.82
36386;BME280;24125;47.482;8.770;2023-02-24T05:26:58;95621.25;;;7.29;68.41
36386;BME280;24125;47.482;8.770;2023-02-24T05:29:33;95624.88;;;7.33;68.08
36386;BME280;24125;47.482;8.770;2023-02-24T05:32:07;95616.91;;;7.33;68.75
36386;BME280;24125;47.482;8.770;2023-02-24T05:34:40;95614.84;;;7.39;68.30
36386;BME280;24125;47.482;8.770;2023-02-24T05:37:13;95615.00;;;7.42;68.19
36386;BME280;24125;47.482;8.770;2023-02-24T05:39:47;95607.47;;;7.44;68.60
36386;BME280;24125;47.482;8.770;2023-02-24T05:42:20;95610.28;;;7.48;68.43
36386;BME280;24125;47.482;8.770;2023-02-24T05:44:54;95598.25;;;7.50;67.85
36386;BME280;24125;47.482;8.770;2023-02-24T05:47:27;95596.03;;;7.52;68.24
36386;BME280;24125;47.482;8.770;2023-02-24T05:50:00;95591.50;;;7.53;68.13
36386;BME280;24125;47.482;8.770;2023-02-24T05:52:34;95587.13;;;7.57;68.53
36386;BME280;24125;47.482;8.770;2023-02-24T05:55:08;95589.13;;;7.60;68.15
36386;BME280;24125;47.482;8.770;2023-02-24T05:57:44;95595.34;;;7.64;68.45
36386;BME280;24125;47.482;8.770;2023-02-24T06:00:20;95586.75;;;7.67;67.57
36386;BME280;24125;47.482;8.770;2023-02-24T06:02:56;95597.06;;;7.69;67.81
36386;BME280;24125;47.482;8.770;2023-02-24T06:05:39;95597.19;;;7.72;67.93
36386;BME280;24125;47.482;8.770;2023-02-24T06:08:13;95593.44;;;7.73;67.65
36386;BME280;24125;47.482;8.770;2023-02-24T06:10:46;95592.34;;;7.74;67.34
36386;BME280;24125;47.482;8.770;2023-02-24T06:13:18;95589.38;;;7.76;68.18
36386;BME280;24125;47.482;8.770;2023-02-24T06:15:55;95585.31;;;7.78;68.16
36386;BME280;24125;47.482;8.770;2023-02-24T06:18:28;95590.63;;;7.78;67.95
36386;BME280;24125;47.482;8.770;2023-02-24T06:21:02;95591.38;;;7.79;67.72
36386;BME280;24125;47.482;8.770;2023-02-24T06:23:35;95584.06;;;7.76;67.55
36386;BME280;24125;47.482;8.770;2023-02-24T06:26:08;95582.19;;;7.76;67.89
36386;BME280;24125;47.482;8.770;2023-02-24T06:28:44;95588.59;;;7.75;66.76
36386;BME280;24125;47.482;8.770;2023-02-24T06:31:20;95589.22;;;7.72;67.15
36386;BME280;24125;47.482;8.770;2023-02-24T06:33:54;95585.66;;;7.68;67.26
36386;BME280;24125;47.482;8.770;2023-02-24T06:36:27;95582.84;;;7.65;66.67
36386;BME280;24125;47.482;8.770;2023-02-24T06:39:00;95576.94;;;7.59;66.96
36386;BME280;24125;47.482;8.770;2023-02-24T06:41:34;95570.72;;;7.55;67.09
36386;BME280;24125;47.482;8.770;2023-02-24T06:44:08;95582.00;;;7.52;66.72
36386;BME280;24125;47.482;8.770;2023-02-24T06:46:42;95577.63;;;7.47;66.73
36386;BME280;24125;47.482;8.770;2023-02-24T06:49:16;95570.94;;;7.41;66.84
36386;BME280;24125;47.482;8.770;2023-02-24T06:51:50;95569.22;;;7.37;67.47
36386;BME280;24125;47.482;8.770;2023-02-24T06:54:23;95579.41;;;7.35;66.88
36386;BME280;24125;47.482;8.770;2023-02-24T06:56:58;95578.47;;;7.31;67.31
36386;BME280;24125;47.482;8.770;2023-02-24T06:59:33;95578.78;;;7.29;67.58
36386;BME280;24125;47.482;8.770;2023-02-24T07:02:10;95566.59;;;7.28;68.16
36386;BME280;24125;47.482;8.770;2023-02-24T07:04:43;95567.38;;;7.29;68.36
36386;BME280;24125;47.482;8.770;2023-02-24T07:07:16;95565.97;;;7.31;68.29
36386;BME280;24125;47.482;8.770;2023-02-24T07:09:50;95554.72;;;7.34;68.80
36386;BME280;24125;47.482;8.770;2023-02-24T07:12:22;95556.41;;;7.39;69.02
36386;BME280;24125;47.482;8.770;2023-02-24T07:14:55;95549.81;;;7.45;69.18
36386;BME280;24125;47.482;8.770;2023-02-24T07:17:30;95550.56;;;7.54;69.49
36386;BME280;24125;47.482;8.770;2023-02-24T07:20:03;95562.56;;;7.60;69.44
36386;BME280;24125;47.482;8.770;2023-02-24T07:22:42;95570.94;;;7.71;69.45
36386;BME280;24125;47.482;8.770;2023-02-24T07:25:16;95564.03;;;7.78;69.66
36386;BME280;24125;47.482;8.770;2023-02-24T07:28:03;95563.66;;;7.88;69.05
36386;BME280;24125;47.482;8.770;2023-02-24T07:30:39;95562.81;;;7.96;69.49
36386;BME280;24125;47.482;8.770;2023-02-24T07:33:13;95553.69;;;8.06;69.49
36386;BME280;24125;47.482;8.770;2023-02-24T07:35:48;95552.50;;;8.16;69.26
36386;BME280;24125;47.482;8.770;2023-02-24T07:38:22;95544.47;;;8.24;70.12
36386;BME280;24125;47.482;8.770;2023-02-24T07:40:56;95543.00;;;8.36;70.00
36386;BME280;24125;47.482;8.770;2023-02-24T07:43:29;95557.47;;;8.47;69.48
36386;BME280;24125;47.482;8.770;2023-02-24T07:46:07;95551.56;;;8.62;69.20
36386;BME280;24125;47.482;8.770;2023-02-24T07:48:41;95540.81;;;8.70;68.85
36386;BME280;24125;47.482;8.770;2023-02-24T07:51:16;95536.19;;;8.80;68.23
36386;BME280;24125;47.482;8.770;2023-02-24T07:53:52;95535.97;;;8.85;68.33
36386;BME280;24125;47.482;8.770;2023-02-24T07:56:28;95535.78;;;8.90;67.98
36386;BME280;24125;47.482;8.770;2023-02-24T07:59:04;95517.25;;;8.93;67.97
36386;BME280;24125;47.482;8.770;2023-02-24T08:01:41;95515.91;;;8.99;68.35
36386;BME280;24125;47.482;8.770;2023-02-24T08:04:24;95517.72;;;9.07;68.34
36386;BME280;24125;47.482;8.770;2023-02-24T08:06:57;95517.06;;;9.11;68.48
36386;BME280;24125;47.482;8.770;2023-02-24T08:09:34;95507.41;;;9.18;68.64
36386;BME280;24125;47.482;8.770;2023-02-24T08:12:39;95504.63;;;9.27;68.44
36386;BME280;24125;47.482;8.770;2023-02-24T08:15:14;95503.41;;;9.36;68.35
36386;BME280;24125;47.482;8.770;2023-02-24T08:17:56;95508.31;;;9.46;68.40
36386;BME280;24125;47.482;8.770;2023-02-24T08:20:32;95503.97;;;9.54;68.23
36386;BME280;24125;47.482;8.770;2023-02-24T08:23:22;95505.41;;;9.64;68.52
36386;BME280;24125;47.482;8.770;2023-02-24T08:25:56;95506.41;;;9.71;68.23
36386;BME280;24125;47.482;8.770;2023-02-24T08:28:29;95504.38;;;9.80;67.80
36386;BME280;24125;47.482;8.770;2023-02-24T08:31:02;95503.16;;;9.90;67.87
36386;BME280;24125;47.482;8.770;2023-02-24T08:33:36;95495.69;;;9.96;67.72
36386;BME280;24125;47.482;8.770;2023-02-24T08:36:10;95495.56;;;10.04;67.71
36386;BME280;24125;47.482;8.770;2023-02-24T08:38:44;95492.34;;;10.11;67.49
36386;BME280;24125;47.482;8.770;2023-02-24T08:41:22;95493.00;;;10.20;67.55
36386;BME280;24125;47.482;8.770;2023-02-24T08:44:15;95489.06;;;10.30;67.20
36386;BME280;24125;47.482;8.770;2023-02-24T08:46:50;95475.16;;;10.36;67.19
36386;BME280;24125;47.482;8.770;2023-02-24T08:49:23;95479.13;;;10.42;67.80
36386;BME280;24125;47.482;8.770;2023-02-24T08:52:00;95480.19;;;10.53;67.27
36386;BME280;24125;47.482;8.770;2023-02-24T08:54:33;95476.59;;;10.62;67.87
36386;BME280;24125;47.482;8.770;2023-02-24T08:57:18;95468.44;;;10.70;67.17
36386;BME280;24125;47.482;8.770;2023-02-24T08:59:55;95464.13;;;10.81;67.31
36386;BME280;24125;47.482;8.770;2023-02-24T09:02:29;95470.50;;;10.92;67.41
36386;BME280;24125;47.482;8.770;2023-02-24T09:05:08;95468.53;;;11.05;67.57
36386;BME280;24125;47.482;8.770;2023-02-24T09:07:46;95470.09;;;11.22;68.23
36386;BME280;24125;47.482;8.770;2023-02-24T09:10:25;95467.06;;;11.39;68.45
36386;BME280;24125;47.482;8.770;2023-02-24T09:12:59;95459.94;;;11.62;68.38
36386;BME280;24125;47.482;8.770;2023-02-24T09:15:39;95454.38;;;11.87;68.71
36386;BME280;24125;47.482;8.770;2023-02-24T09:18:14;95456.09;;;12.14;68.68
36386;BME280;24125;47.482;8.770;2023-02-24T09:20:47;95455.88;;;12.42;67.74
36386;BME280;24125;47.482;8.770;2023-02-24T09:23:48;95454.91;;;12.73;67.46
36386;BME280;24125;47.482;8.770;2023-02-24T09:26:21;95455.31;;;12.98;66.71
36386;BME280;24125;47.482;8.770;2023-02-24T09:28:54;95446.97;;;13.22;66.52
36386;BME280;24125;47.482;8.770;2023-02-24T09:31:27;95439.22;;;13.43;65.95
36386;BME280;24125;47.482;8.770;2023-02-24T09:34:12;95441.50;;;13.68;65.77
36386;BME280;24125;47.482;8.770;2023-02-24T09:36:49;95434.16;;;13.91;65.85
36386;BME280;24125;47.482;8.770;2023-02-24T09:39:35;95434.81;;;14.14;65.15
36386;BME280;24125;47.482;8.770;2023-02-24T09:42:24;95433.53;;;14.34;64.15
36386;BME280;24125;47.482;8.770;2023-02-24T09:45:20;95427.63;;;14.55;63.75
36386;BME280;24125;47.482;8.770;2023-02-24T09:48:11;95422.44;;;14.73;63.46
36386;BME280;24125;47.482;8.770;2023-02-24T09:50:51;95419.16;;;14.90;63.31
36386;BME280;24125;47.482;8.770;2023-02-24T09:53:35;95410.81;;;15.06;62.94
36386;BME280;24125;47.482;8.770;2023-02-24T09:56:27;95407.13;;;15.21;62.24
36386;BME280;24125;47.482;8.770;2023-02-24T09:59:11;95400.66;;;15.33;61.74
36386;BME280;24125;47.482;8.770;2023-02-24T10:01:45;95393.81;;;15.42;63.54
36386;BME280;24125;47.482;8.770;2023-02-24T10:04:39;95402.81;;;15.61;62.40
36386;BME280;24125;47.482;8.770;2023-02-24T10:07:25;95394.41;;;15.76;62.51
36386;BME280;24125;47.482;8.770;2023-02-24T10:10:02;95386.81;;;15.93;62.29
36386;BME280;24125;47.482;8.770;2023-02-24T10:12:56;95383.06;;;16.15;62.31
36386;BME280;24125;47.482;8.770;2023-02-24T10:15:32;95381.97;;;16.37;61.49
36386;BME280;24125;47.482;8.770;2023-02-24T10:18:41;95378.19;;;16.59;61.28
36386;BME280;24125;47.482;8.770;2023-02-24T10:21:22;95370.50;;;16.79;60.56
36386;BME280;24125;47.482;8.770;2023-02-24T10:24:24;95365.16;;;17.01;60.11
36386;BME280;24125;47.482;8.770;2023-02-24T10:27:02;95358.97;;;17.18;60.37
36386;BME280;24125;47.482;8.770;2023-02-24T10:29:52;95350.84;;;17.39;59.36
36386;BME280;24125;47.482;8.770;2023-02-24T10:32:39;95345.78;;;17.59;58.85
36386;BME280;24125;47.482;8.770;2023-02-24T10:35:20;95345.75;;;17.77;58.61
36386;BME280;24125;47.482;8.770;2023-02-24T10:37:56;95347.63;;;17.94;58.57
36386;BME280;24125;47.482;8.770;2023-02-24T10:40:43;95348.31;;;18.16;58.20
36386;BME280;24125;47.482;8.770;2023-02-24T10:43:20;95336.66;;;18.29;57.69
36386;BME280;24125;47.482;8.770;2023-02-24T10:46:02;95335.00;;;18.46;56.70
36386;BME280;24125;47.482;8.770;2023-02-24T10:48:52;95326.88;;;18.57;55.81
36386;BME280;24125;47.482;8.770;2023-02-24T10:51:35;95328.34;;;18.65;56.17
36386;BME280;24125;47.482;8.770;2023-02-24T10:54:13;95326.00;;;18.70;54.64
36386;BME280;24125;47.482;8.770;2023-02-24T10:57:20;95329.06;;;18.72;55.25
36386;BME280;24125;47.482;8.770;2023-02-24T11:00:19;95325.59;;;18.72;55.18
36386;BME280;24125;47.482;8.770;2023-02-24T11:03:14;95324.88;;;18.68;55.40
36386;BME280;24125;47.482;8.770;2023-02-24T11:06:03;95327.97;;;18.63;55.15
36386;BME280;24125;47.482;8.770;2023-02-24T11:08:56;95322.63;;;18.59;55.03
36386;BME280;24125;47.482;8.770;2023-02-24T11:11:49;95317.63;;;18.47;54.76
36386;BME280;24125;47.482;8.770;2023-02-24T11:14:48;95315.00;;;18.36;54.45
36386;BME280;24125;47.482;8.770;2023-02-24T11:17:45;95315.47;;;18.24;54.35
36386;BME280;24125;47.482;8.770;2023-02-24T11:20:28;95301.25;;;18.09;54.59
36386;BME280;24125;47.482;8.770;2023-02-24T11:23:21;95296.69;;;17.96;54.67
36386;BME280;24125;47.482;8.770;2023-02-24T11:25:58;95290.97;;;17.83;55.24
36386;BME280;24125;47.482;8.770;2023-02-24T11:28:42;95278.69;;;17.71;55.04
36386;BME280;24125;47.482;8.770;2023-02-24T11:31:27;95271.00;;;17.59;55.60
36386;BME280;24125;47.482;8.770;2023-02-24T11:34:10;95268.72;;;17.47;55.58
36386;BME280;24125;47.482;8.770;2023-02-24T11:36:53;95255.28;;;17.37;54.98
36386;BME280;24125;47.482;8.770;2023-02-24T11:39:44;95254.91;;;17.27;55.97
36386;BME280;24125;47.482;8.770;2023-02-24T11:42:23;95250.69;;;17.19;55.95
36386;BME280;24125;47.482;8.770;2023-02-24T11:45:01;95246.47;;;17.15;56.22
36386;BME280;24125;47.482;8.770;2023-02-24T11:47:41;95240.31;;;17.11;55.94
36386;BME280;24125;47.482;8.770;2023-02-24T11:50:29;95232.22;;;17.11;56.06
36386;BME280;24125;47.482;8.770;2023-02-24T11:53:15;95223.00;;;17.12;54.91
36386;BME280;24125;47.482;8.770;2023-02-24T11:55:55;95229.50;;;17.14;55.54
36386;BME280;24125;47.482;8.770;2023-02-24T11:58:39;95217.56;;;17.19;55.46
36386;BME280;24125;47.482;8.770;2023-02-24T12:01:20;95213.28;;;17.21;55.71
36386;BME280;24125;47.482;8.770;2023-02-24T12:04:02;95202.09;;;17.30;55.87
36386;BME280;24125;47.482;8.770;2023-02-24T12:06:44;95201.28;;;17.40;55.98
36386;BME280;24125;47.482;8.770;2023-02-24T12:09:22;95201.59;;;17.56;56.29
36386;BME280;24125;47.482;8.770;2023-02-24T12:12:00;95193.47;;;17.70;56.28
36386;BME280;24125;47.482;8.770;2023-02-24T12:14:37;95182.97;;;17.87;55.94
36386;BME280;24125;47.482;8.770;2023-02-24T12:17:16;95182.84;;;18.04;55.16
36386;BME280;24125;47.482;8.770;2023-02-24T12:19:58;95179.25;;;18.18;54.85
36386;BME280;24125;47.482;8.770;2023-02-24T12:22:39;95177.56;;;18.35;54.04
36386;BME280;24125;47.482;8.770;2023-02-24T12:25:21;95176.72;;;18.48;54.11
36386;BME280;24125;47.482;8.770;2023-02-24T12:28:05;95171.97;;;18.60;53.42
36386;BME280;24125;47.482;8.770;2023-02-24T12:30:51;95168.81;;;18.68;51.46
36386;BME280;24125;47.482;8.770;2023-02-24T12:33:43;95159.50;;;18.73;51.44
36386;BME280;24125;47.482;8.770;2023-02-24T12:36:26;95153.72;;;18.74;51.64
36386;BME280;24125;47.482;8.770;2023-02-24T12:39:11;95154.47;;;18.75;51.17
36386;BME280;24125;47.482;8.770;2023-02-24T12:41:56;95154.09;;;18.73;51.35
36386;BME280;24125;47.482;8.770;2023-02-24T12:44:37;95145.25;;;18.69;51.17
36386;BME280;24125;47.482;8.770;2023-02-24T12:47:15;95144.91;;;18.67;51.60
36386;BME280;24125;47.482;8.770;2023-02-24T12:49:58;95135.69;;;18.61;51.06
36386;BME280;24125;47.482;8.770;2023-02-24T12:52:44;95136.09;;;18.56;51.15
36386;BME280;24125;47.482;8.770;2023-02-24T12:55:25;95131.53;;;18.49;51.04
36386;BME280;24125;47.482;8.770;2023-02-24T12:58:08;95135.03;;;18.42;51.71
36386;BME280;24125;47.482;8.770;2023-02-24T13:00:52;95133.56;;;18.38;51.73
36386;BME280;24125;47.482;8.770;2023-02-24T13:03:51;95127.81;;;18.32;52.34
36386;BME280;24125;47.482;8.770;2023-02-24T13:06:36;95124.38;;;18.28;51.88
36386;BME280;24125;47.482;8.770;2023-02-24T13:09:20;95125.53;;;18.27;51.88
36386;BME280;24125;47.482;8.770;2023-02-24T13:11:59;95118.25;;;18.24;51.54
36386;BME280;24125;47.482;8.770;2023-02-24T13:14:38;95108.22;;;18.25;51.33
36386;BME280;24125;47.482;8.770;2023-02-24T13:17:19;95107.78;;;18.26;51.43
36386;BME280;24125;47.482;8.770;2023-02-24T13:19:54;95100.84;;;18.25;51.85
36386;BME280;24125;47.482;8.770;2023-02-24T13:22:28;95102.38;;;18.26;51.41
36386;BME280;24125;47.482;8.770;2023-02-24T13:25:17;95095.44;;;18.29;51.65
36386;BME280;24125;47.482;8.770;2023-02-24T13:27:59;95101.56;;;18.33;51.58
36386;BME280;24125;47.482;8.770;2023-02-24T13:30:39;95096.13;;;18.36;51.40
36386;BME280;24125;47.482;8.770;2023-02-24T13:33:26;95083.75;;;18.39;51.20
36386;BME280;24125;47.482;8.770;2023-02-24T13:36:14;95081.38;;;18.44;51.13
36386;BME280;24125;47.482;8.770;2023-02-24T13:38:48;95083.66;;;18.50;51.92
36386;BME280;24125;47.482;8.770;2023-02-24T13:41:37;95078.97;;;18.57;51.55
36386;BME280;24125;47.482;8.770;2023-02-24T13:44:23;95076.19;;;18.64;51.20
36386;BME280;24125;47.482;8.770;2023-02-24T13:50:15;95059.44;;;18.76;50.61
36386;BME280;24125;47.482;8.770;2023-02-24T13:53:04;95061.28;;;18.83;51.00
36386;BME280;24125;47.482;8.770;2023-02-24T13:55:48;95053.88;;;18.87;50.93
36386;BME280;24125;47.482;8.770;2023-02-24T13:58:30;95052.31;;;18.90;50.23
36386;BME280;24125;47.482;8.770;2023-02-24T14:01:09;95048.44;;;18.91;50.46
36386;BME280;24125;47.482;8.770;2023-02-24T14:04:02;95047.22;;;18.95;49.94
36386;BME280;24125;47.482;8.770;2023-02-24T14:06:36;95039.53;;;18.94;50.03
36386;BME280;24125;47.482;8.770;2023-02-24T14:09:15;95040.28;;;18.94;49.56
36386;BME280;24125;47.482;8.770;2023-02-24T14:11:51;95042.97;;;18.94;49.83
36386;BME280;24125;47.482;8.770;2023-02-24T14:14:27;95047.22;;;18.95;49.90
36386;BME280;24125;47.482;8.770;2023-02-24T14:17:01;95038.31;;;18.98;50.30
36386;BME280;24125;47.482;8.770;2023-02-24T14:19:35;95030.97;;;18.99;50.08